SLC Intl Airport
, Salt Lake City
Last Weather Update:03/29/2012 12:00:00 PM
Date
ETo
ETc
Rain
Irrigation
Req
Temp
Max
Temp
Min
Temp
Avg
Avg RH
Avg Wind
Avg Solar
inches
inches
incehs
inches
F
F
F
%
%
watts/m2
02/01/2012 0.04" 0.00" 0.00" 0.00" 46.2° 28.5° 36.1° 66.4% 5.2 MPH 56.9w/m2
02/02/2012 0.04" 0.00" 0.07" -0.06" 41.3° 31.1° 34.9° 78.6% 8.2 MPH 107.9w/m2
02/03/2012 0.07" 0.00" 0.00" 0.00" 44.5° 26.9° 35.3° 57.7% 5.1 MPH 147.4w/m2
02/04/2012 0.06" 0.00" 0.00" 0.00" 45.5° 25.8° 33.2° 56.1% 3.1 MPH 150.7w/m2
02/05/2012 0.05" 0.00" 0.00" 0.00" 41.2° 24.1° 32.0° 61.4% 2.2 MPH 151.3w/m2
02/06/2012 0.05" 0.00" 0.00" 0.00" 40.5° 23.9° 31.7° 66.6% 2.9 MPH 150.8w/m2
02/07/2012 0.07" 0.00" 0.00" 0.00" 47.7° 24.9° 34.3° 53.1% 4.6 MPH 151.8w/m2
02/08/2012 0.04" 0.00" 0.01" -0.01" 42.5° 33.5° 36.9° 68.6% 4.0 MPH 77.9w/m2
02/09/2012 0.03" 0.00" 0.00" 0.00" 44.9° 34.0° 39.4° 74.7% 2.2 MPH 67.0w/m2
02/10/2012 0.07" 0.00" 0.00" 0.00" 56.7° 38.6° 44.7° 63.5% 4.5 MPH 117.1w/m2
02/11/2012 0.06" 0.00" 0.00" 0.00" 57.1° 37.0° 43.8° 56.7% 6.2 MPH 72.2w/m2
02/12/2012 0.02" 0.00" 0.33" -0.26" 43.3° 33.8° 37.8° 85.2% 5.9 MPH 17.4w/m2
02/13/2012 0.06" 0.00" 0.01" -0.01" 48.1° 34.0° 39.6° 73.0% 4.0 MPH 120.0w/m2
02/14/2012 0.06" 0.00" 0.00" 0.00" 44.1° 34.3° 38.7° 69.9% 3.9 MPH 158.9w/m2
02/15/2012 0.03" 0.00" 0.08" -0.06" 41.9° 32.7° 36.7° 78.7% 4.1 MPH 80.3w/m2
02/16/2012 0.06" 0.00" 0.00" 0.00" 40.4° 30.0° 34.3° 68.9% 5.2 MPH 171.1w/m2
02/17/2012 0.06" 0.00" 0.00" 0.00" 44.1° 27.2° 34.6° 61.9% 3.7 MPH 129.9w/m2
02/18/2012 0.07" 0.00" 0.00" 0.00" 47.0° 29.0° 37.4° 59.4% 6.3 MPH 142.4w/m2
02/19/2012 0.04" 0.00" 0.05" -0.04" 34.7° 26.3° 30.2° 79.2% 8.3 MPH 128.2w/m2
02/20/2012 0.06" 0.00" 0.00" 0.00" 37.7° 23.2° 31.4° 62.1% 7.7 MPH 164.3w/m2
02/21/2012 0.06" 0.00" 0.01" -0.01" 47.1° 34.0° 40.3° 54.6% 6.1 MPH 91.9w/m2
02/22/2012 0.09" 0.00" 0.00" 0.00" 58.4° 40.9° 49.4° 55.1% 6.1 MPH 114.1w/m2
02/23/2012 0.07" 0.00" 0.00" 0.00" 48.0° 29.5° 36.2° 44.4% 9.0 MPH 137.0w/m2
02/24/2012 0.09" 0.00" 0.00" 0.00" 47.7° 26.4° 36.3° 45.9% 4.3 MPH 199.3w/m2
02/25/2012 0.11" 0.00" 0.00" 0.00" 54.3° 30.4° 38.8° 38.3% 15.0 MPH 144.7w/m2
02/26/2012 0.09" 0.00" 0.00" 0.00" 40.2° 25.0° 32.5° 36.2% 4.9 MPH 201.4w/m2
02/27/2012 0.06" 0.00" 0.01" -0.01" 42.9° 29.5° 36.1° 53.9% 6.1 MPH 99.0w/m2
02/28/2012 0.04" 0.00" 0.02" -0.02" 39.4° 31.0° 34.8° 71.4% 6.4 MPH 92.3w/m2
02/29/2012 0.09" 0.00" 0.00" 0.00" 48.6° 27.7° 37.0° 62.5% 14.7 MPH 97.4w/m2
Totals: 1.74" 0.00" 0.59" -0.47" 58.4° 23.2° 36.7° 62.2% 5.9 MPH 122.1w/m2